sensor_id;sensor_type;location;lat;lon;timestamp;P1;durP1;ratioP1;P2;durP2;ratioP2
73456;SDS011;61691;53.072;6.582;2024-03-08T00:00:11;33.53;;;16.38;;
73456;SDS011;61691;53.072;6.582;2024-03-08T00:02:43;31.83;;;16.35;;
73456;SDS011;61691;53.072;6.582;2024-03-08T00:05:14;34.03;;;15.57;;
73456;SDS011;61691;53.072;6.582;2024-03-08T00:07:42;31.77;;;16.38;;
73456;SDS011;61691;53.072;6.582;2024-03-08T00:10:11;32.53;;;16.27;;
73456;SDS011;61691;53.072;6.582;2024-03-08T00:12:42;31.55;;;16.10;;
73456;SDS011;61691;53.072;6.582;2024-03-08T00:15:11;30.23;;;15.43;;
73456;SDS011;61691;53.072;6.582;2024-03-08T00:17:44;34.35;;;17.00;;
73456;SDS011;61691;53.072;6.582;2024-03-08T00:20:12;32.70;;;16.67;;
73456;SDS011;61691;53.072;6.582;2024-03-08T00:22:40;33.17;;;16.35;;
73456;SDS011;61691;53.072;6.582;2024-03-08T00:25:08;32.03;;;16.58;;
73456;SDS011;61691;53.072;6.582;2024-03-08T00:27:41;33.10;;;16.90;;
73456;SDS011;61691;53.072;6.582;2024-03-08T00:30:09;34.60;;;18.05;;
73456;SDS011;61691;53.072;6.582;2024-03-08T00:32:37;35.63;;;17.80;;
73456;SDS011;61691;53.072;6.582;2024-03-08T00:35:05;36.33;;;16.52;;
73456;SDS011;61691;53.072;6.582;2024-03-08T00:40:03;34.97;;;17.02;;
73456;SDS011;61691;53.072;6.582;2024-03-08T00:42:31;35.10;;;17.35;;
73456;SDS011;61691;53.072;6.582;2024-03-08T00:45:00;36.70;;;18.27;;
73456;SDS011;61691;53.072;6.582;2024-03-08T00:47:28;38.45;;;18.50;;
73456;SDS011;61691;53.072;6.582;2024-03-08T00:49:56;35.50;;;18.17;;
73456;SDS011;61691;53.072;6.582;2024-03-08T00:52:23;33.90;;;17.38;;
73456;SDS011;61691;53.072;6.582;2024-03-08T00:54:51;33.70;;;17.95;;
73456;SDS011;61691;53.072;6.582;2024-03-08T00:57:18;36.20;;;18.08;;
73456;SDS011;61691;53.072;6.582;2024-03-08T00:59:46;36.83;;;17.92;;
73456;SDS011;61691;53.072;6.582;2024-03-08T01:02:14;34.55;;;18.23;;
73456;SDS011;61691;53.072;6.582;2024-03-08T01:04:41;36.40;;;16.88;;
73456;SDS011;61691;53.072;6.582;2024-03-08T01:07:08;37.33;;;19.15;;
73456;SDS011;61691;53.072;6.582;2024-03-08T01:09:36;38.70;;;19.38;;
73456;SDS011;61691;53.072;6.582;2024-03-08T01:12:03;33.17;;;17.45;;
73456;SDS011;61691;53.072;6.582;2024-03-08T01:14:30;33.67;;;17.73;;
73456;SDS011;61691;53.072;6.582;2024-03-08T01:16:58;33.85;;;18.20;;
73456;SDS011;61691;53.072;6.582;2024-03-08T01:19:26;34.35;;;18.30;;
73456;SDS011;61691;53.072;6.582;2024-03-08T01:21:53;36.40;;;19.02;;
73456;SDS011;61691;53.072;6.582;2024-03-08T01:24:23;38.65;;;20.52;;
73456;SDS011;61691;53.072;6.582;2024-03-08T01:26:52;34.83;;;18.48;;
73456;SDS011;61691;53.072;6.582;2024-03-08T01:29:19;35.70;;;18.15;;
73456;SDS011;61691;53.072;6.582;2024-03-08T01:31:46;35.58;;;18.73;;
73456;SDS011;61691;53.072;6.582;2024-03-08T01:34:13;35.70;;;18.17;;
73456;SDS011;61691;53.072;6.582;2024-03-08T01:36:41;33.17;;;17.90;;
73456;SDS011;61691;53.072;6.582;2024-03-08T01:39:08;38.30;;;17.88;;
73456;SDS011;61691;53.072;6.582;2024-03-08T01:41:36;37.35;;;18.40;;
73456;SDS011;61691;53.072;6.582;2024-03-08T01:44:04;33.17;;;18.23;;
73456;SDS011;61691;53.072;6.582;2024-03-08T01:46:34;36.17;;;18.23;;
73456;SDS011;61691;53.072;6.582;2024-03-08T01:49:01;35.75;;;19.02;;
73456;SDS011;61691;53.072;6.582;2024-03-08T01:51:29;40.92;;;20.00;;
73456;SDS011;61691;53.072;6.582;2024-03-08T01:53:58;36.47;;;20.02;;
73456;SDS011;61691;53.072;6.582;2024-03-08T01:56:28;38.33;;;20.13;;
73456;SDS011;61691;53.072;6.582;2024-03-08T01:58:57;36.25;;;19.00;;
73456;SDS011;61691;53.072;6.582;2024-03-08T02:01:26;35.03;;;17.00;;
73456;SDS011;61691;53.072;6.582;2024-03-08T02:03:55;36.95;;;19.67;;
73456;SDS011;61691;53.072;6.582;2024-03-08T02:06:22;35.70;;;17.88;;
73456;SDS011;61691;53.072;6.582;2024-03-08T02:08:50;36.75;;;18.23;;
73456;SDS011;61691;53.072;6.582;2024-03-08T02:11:18;37.20;;;20.10;;
73456;SDS011;61691;53.072;6.582;2024-03-08T02:13:47;35.42;;;19.02;;
73456;SDS011;61691;53.072;6.582;2024-03-08T02:16:20;34.03;;;15.65;;
73456;SDS011;61691;53.072;6.582;2024-03-08T02:18:48;35.40;;;18.45;;
73456;SDS011;61691;53.072;6.582;2024-03-08T02:21:16;36.15;;;18.27;;
73456;SDS011;61691;53.072;6.582;2024-03-08T02:23:48;36.03;;;18.50;;
73456;SDS011;61691;53.072;6.582;2024-03-08T02:26:15;36.15;;;19.20;;
73456;SDS011;61691;53.072;6.582;2024-03-08T02:28:43;36.70;;;18.73;;
73456;SDS011;61691;53.072;6.582;2024-03-08T02:31:11;38.40;;;18.80;;
73456;SDS011;61691;53.072;6.582;2024-03-08T02:33:39;37.33;;;18.83;;
73456;SDS011;61691;53.072;6.582;2024-03-08T02:36:06;37.17;;;18.75;;
73456;SDS011;61691;53.072;6.582;2024-03-08T02:38:34;35.65;;;19.73;;
73456;SDS011;61691;53.072;6.582;2024-03-08T02:41:01;36.50;;;18.13;;
73456;SDS011;61691;53.072;6.582;2024-03-08T02:43:30;34.65;;;17.20;;
73456;SDS011;61691;53.072;6.582;2024-03-08T02:45:58;37.10;;;18.65;;
73456;SDS011;61691;53.072;6.582;2024-03-08T02:48:26;37.30;;;19.05;;
73456;SDS011;61691;53.072;6.582;2024-03-08T02:50:55;36.67;;;19.05;;
73456;SDS011;61691;53.072;6.582;2024-03-08T02:53:23;36.15;;;16.83;;
73456;SDS011;61691;53.072;6.582;2024-03-08T02:55:51;35.63;;;18.30;;
73456;SDS011;61691;53.072;6.582;2024-03-08T02:58:18;34.22;;;17.73;;
73456;SDS011;61691;53.072;6.582;2024-03-08T03:00:45;36.97;;;18.40;;
73456;SDS011;61691;53.072;6.582;2024-03-08T03:03:13;33.67;;;18.25;;
73456;SDS011;61691;53.072;6.582;2024-03-08T03:05:40;34.70;;;18.52;;
73456;SDS011;61691;53.072;6.582;2024-03-08T03:08:15;37.85;;;18.80;;
73456;SDS011;61691;53.072;6.582;2024-03-08T03:10:45;36.40;;;18.25;;
73456;SDS011;61691;53.072;6.582;2024-03-08T03:13:12;37.45;;;18.33;;
73456;SDS011;61691;53.072;6.582;2024-03-08T03:15:40;36.05;;;18.13;;
73456;SDS011;61691;53.072;6.582;2024-03-08T03:18:11;36.35;;;19.20;;
73456;SDS011;61691;53.072;6.582;2024-03-08T03:20:38;34.75;;;17.63;;
73456;SDS011;61691;53.072;6.582;2024-03-08T03:23:10;35.53;;;18.38;;
73456;SDS011;61691;53.072;6.582;2024-03-08T03:25:42;36.22;;;18.20;;
73456;SDS011;61691;53.072;6.582;2024-03-08T03:28:10;38.03;;;18.67;;
73456;SDS011;61691;53.072;6.582;2024-03-08T03:30:41;38.75;;;19.42;;
73456;SDS011;61691;53.072;6.582;2024-03-08T03:33:08;37.05;;;18.05;;
73456;SDS011;61691;53.072;6.582;2024-03-08T03:35:37;31.38;;;15.75;;
73456;SDS011;61691;53.072;6.582;2024-03-08T03:38:05;35.10;;;17.55;;
73456;SDS011;61691;53.072;6.582;2024-03-08T03:40:32;33.92;;;17.65;;
73456;SDS011;61691;53.072;6.582;2024-03-08T03:43:00;35.22;;;18.77;;
73456;SDS011;61691;53.072;6.582;2024-03-08T03:45:28;34.53;;;17.23;;
73456;SDS011;61691;53.072;6.582;2024-03-08T03:47:55;36.75;;;18.83;;
73456;SDS011;61691;53.072;6.582;2024-03-08T03:50:23;33.50;;;17.55;;
73456;SDS011;61691;53.072;6.582;2024-03-08T03:52:50;35.85;;;17.77;;
73456;SDS011;61691;53.072;6.582;2024-03-08T03:55:17;35.63;;;17.95;;
73456;SDS011;61691;53.072;6.582;2024-03-08T03:57:46;37.40;;;17.30;;
73456;SDS011;61691;53.072;6.582;2024-03-08T04:00:14;36.40;;;18.00;;
73456;SDS011;61691;53.072;6.582;2024-03-08T04:02:42;33.08;;;17.65;;
73456;SDS011;61691;53.072;6.582;2024-03-08T04:05:10;33.83;;;17.60;;
73456;SDS011;61691;53.072;6.582;2024-03-08T04:07:38;35.58;;;18.70;;
73456;SDS011;61691;53.072;6.582;2024-03-08T04:10:06;35.97;;;16.40;;
73456;SDS011;61691;53.072;6.582;2024-03-08T04:12:35;36.80;;;18.80;;
73456;SDS011;61691;53.072;6.582;2024-03-08T04:15:03;37.50;;;15.80;;
73456;SDS011;61691;53.072;6.582;2024-03-08T04:17:34;38.38;;;17.92;;
73456;SDS011;61691;53.072;6.582;2024-03-08T04:22:36;34.67;;;17.88;;
73456;SDS011;61691;53.072;6.582;2024-03-08T04:25:04;34.97;;;18.27;;
73456;SDS011;61691;53.072;6.582;2024-03-08T04:27:33;35.40;;;17.10;;
73456;SDS011;61691;53.072;6.582;2024-03-08T04:30:01;37.83;;;19.65;;
73456;SDS011;61691;53.072;6.582;2024-03-08T04:32:29;32.10;;;16.25;;
73456;SDS011;61691;53.072;6.582;2024-03-08T04:34:57;35.10;;;16.58;;
73456;SDS011;61691;53.072;6.582;2024-03-08T04:37:24;34.08;;;18.33;;
73456;SDS011;61691;53.072;6.582;2024-03-08T04:39:52;32.00;;;16.83;;
73456;SDS011;61691;53.072;6.582;2024-03-08T04:42:19;34.35;;;17.88;;
73456;SDS011;61691;53.072;6.582;2024-03-08T04:44:46;34.15;;;16.33;;
73456;SDS011;61691;53.072;6.582;2024-03-08T04:47:14;35.47;;;17.30;;
73456;SDS011;61691;53.072;6.582;2024-03-08T04:49:43;36.28;;;17.85;;
73456;SDS011;61691;53.072;6.582;2024-03-08T04:52:10;34.63;;;17.23;;
73456;SDS011;61691;53.072;6.582;2024-03-08T04:54:37;34.20;;;16.70;;
73456;SDS011;61691;53.072;6.582;2024-03-08T04:57:05;33.10;;;16.95;;
73456;SDS011;61691;53.072;6.582;2024-03-08T04:59:35;32.63;;;15.68;;
73456;SDS011;61691;53.072;6.582;2024-03-08T05:02:03;33.22;;;17.30;;
73456;SDS011;61691;53.072;6.582;2024-03-08T05:04:31;34.10;;;16.63;;
73456;SDS011;61691;53.072;6.582;2024-03-08T05:06:58;35.13;;;16.88;;
73456;SDS011;61691;53.072;6.582;2024-03-08T05:09:27;33.07;;;16.87;;
73456;SDS011;61691;53.072;6.582;2024-03-08T05:11:56;37.60;;;19.50;;
73456;SDS011;61691;53.072;6.582;2024-03-08T05:14:25;35.85;;;17.83;;
73456;SDS011;61691;53.072;6.582;2024-03-08T05:16:52;33.90;;;15.85;;
73456;SDS011;61691;53.072;6.582;2024-03-08T05:19:20;36.03;;;16.17;;
73456;SDS011;61691;53.072;6.582;2024-03-08T05:21:48;34.20;;;17.42;;
73456;SDS011;61691;53.072;6.582;2024-03-08T05:24:17;34.35;;;16.58;;
73456;SDS011;61691;53.072;6.582;2024-03-08T05:26:45;33.30;;;17.27;;
73456;SDS011;61691;53.072;6.582;2024-03-08T05:29:13;33.00;;;16.55;;
73456;SDS011;61691;53.072;6.582;2024-03-08T05:31:48;34.20;;;17.67;;
73456;SDS011;61691;53.072;6.582;2024-03-08T05:34:17;31.17;;;16.00;;
73456;SDS011;61691;53.072;6.582;2024-03-08T05:36:46;31.17;;;15.35;;
73456;SDS011;61691;53.072;6.582;2024-03-08T05:39:16;32.28;;;15.38;;
73456;SDS011;61691;53.072;6.582;2024-03-08T05:41:45;31.55;;;15.48;;
73456;SDS011;61691;53.072;6.582;2024-03-08T05:44:13;35.50;;;16.77;;
73456;SDS011;61691;53.072;6.582;2024-03-08T05:46:40;32.58;;;16.20;;
73456;SDS011;61691;53.072;6.582;2024-03-08T05:49:07;34.72;;;16.98;;
73456;SDS011;61691;53.072;6.582;2024-03-08T05:51:38;33.72;;;16.88;;
73456;SDS011;61691;53.072;6.582;2024-03-08T05:54:07;33.85;;;16.60;;
73456;SDS011;61691;53.072;6.582;2024-03-08T05:56:38;31.20;;;15.82;;
73456;SDS011;61691;53.072;6.582;2024-03-08T05:59:09;30.75;;;15.52;;
73456;SDS011;61691;53.072;6.582;2024-03-08T06:01:37;32.92;;;16.65;;
73456;SDS011;61691;53.072;6.582;2024-03-08T06:04:04;31.90;;;16.27;;
73456;SDS011;61691;53.072;6.582;2024-03-08T06:06:32;29.90;;;15.40;;
73456;SDS011;61691;53.072;6.582;2024-03-08T06:08:59;32.45;;;15.85;;
73456;SDS011;61691;53.072;6.582;2024-03-08T06:11:27;33.17;;;16.85;;
73456;SDS011;61691;53.072;6.582;2024-03-08T06:13:55;35.17;;;17.42;;
73456;SDS011;61691;53.072;6.582;2024-03-08T06:16:27;33.63;;;15.25;;
73456;SDS011;61691;53.072;6.582;2024-03-08T06:18:56;32.50;;;15.77;;
73456;SDS011;61691;53.072;6.582;2024-03-08T06:21:24;37.80;;;17.48;;
73456;SDS011;61691;53.072;6.582;2024-03-08T06:26:22;31.98;;;16.27;;
73456;SDS011;61691;53.072;6.582;2024-03-08T06:28:49;29.75;;;14.25;;
73456;SDS011;61691;53.072;6.582;2024-03-08T06:31:17;31.98;;;16.38;;
73456;SDS011;61691;53.072;6.582;2024-03-08T06:33:45;38.55;;;17.83;;
73456;SDS011;61691;53.072;6.582;2024-03-08T06:36:12;34.13;;;16.15;;
73456;SDS011;61691;53.072;6.582;2024-03-08T06:38:40;34.10;;;16.50;;
73456;SDS011;61691;53.072;6.582;2024-03-08T06:41:09;42.60;;;20.27;;
73456;SDS011;61691;53.072;6.582;2024-03-08T06:43:42;33.58;;;16.63;;
73456;SDS011;61691;53.072;6.582;2024-03-08T06:46:10;33.00;;;15.68;;
73456;SDS011;61691;53.072;6.582;2024-03-08T06:48:40;34.22;;;16.10;;
73456;SDS011;61691;53.072;6.582;2024-03-08T06:51:08;34.72;;;16.17;;
73456;SDS011;61691;53.072;6.582;2024-03-08T06:53:37;33.40;;;17.55;;
73456;SDS011;61691;53.072;6.582;2024-03-08T06:56:05;31.40;;;15.95;;
73456;SDS011;61691;53.072;6.582;2024-03-08T06:58:34;32.40;;;16.27;;
73456;SDS011;61691;53.072;6.582;2024-03-08T07:01:02;32.35;;;17.40;;
73456;SDS011;61691;53.072;6.582;2024-03-08T07:03:31;35.67;;;16.50;;
73456;SDS011;61691;53.072;6.582;2024-03-08T07:05:59;33.05;;;16.92;;
73456;SDS011;61691;53.072;6.582;2024-03-08T07:10:57;35.42;;;19.50;;
73456;SDS011;61691;53.072;6.582;2024-03-08T07:13:26;32.60;;;16.40;;
73456;SDS011;61691;53.072;6.582;2024-03-08T07:18:27;33.00;;;15.73;;
73456;SDS011;61691;53.072;6.582;2024-03-08T07:23:24;30.48;;;14.75;;
73456;SDS011;61691;53.072;6.582;2024-03-08T07:26:11;28.88;;;14.23;;
73456;SDS011;61691;53.072;6.582;2024-03-08T07:28:41;32.47;;;15.80;;
73456;SDS011;61691;53.072;6.582;2024-03-08T07:31:09;31.63;;;15.52;;
73456;SDS011;61691;53.072;6.582;2024-03-08T07:33:39;33.88;;;15.80;;
73456;SDS011;61691;53.072;6.582;2024-03-08T07:36:06;28.58;;;14.93;;
73456;SDS011;61691;53.072;6.582;2024-03-08T07:38:34;30.02;;;14.88;;
73456;SDS011;61691;53.072;6.582;2024-03-08T07:41:01;33.72;;;15.57;;
73456;SDS011;61691;53.072;6.582;2024-03-08T07:43:31;34.70;;;16.65;;
73456;SDS011;61691;53.072;6.582;2024-03-08T07:46:00;32.25;;;16.70;;
73456;SDS011;61691;53.072;6.582;2024-03-08T07:48:27;31.98;;;16.13;;
73456;SDS011;61691;53.072;6.582;2024-03-08T07:50:55;32.80;;;16.90;;
73456;SDS011;61691;53.072;6.582;2024-03-08T07:53:22;32.47;;;16.60;;
73456;SDS011;61691;53.072;6.582;2024-03-08T07:55:53;33.30;;;15.77;;
73456;SDS011;61691;53.072;6.582;2024-03-08T07:58:20;32.65;;;16.35;;
73456;SDS011;61691;53.072;6.582;2024-03-08T08:00:48;33.83;;;15.52;;
73456;SDS011;61691;53.072;6.582;2024-03-08T08:03:16;31.83;;;16.75;;
73456;SDS011;61691;53.072;6.582;2024-03-08T08:05:47;33.35;;;16.60;;
73456;SDS011;61691;53.072;6.582;2024-03-08T08:08:16;33.03;;;17.08;;
73456;SDS011;61691;53.072;6.582;2024-03-08T08:10:43;33.72;;;16.52;;
73456;SDS011;61691;53.072;6.582;2024-03-08T08:13:10;30.75;;;15.75;;
73456;SDS011;61691;53.072;6.582;2024-03-08T08:15:38;34.30;;;16.45;;
73456;SDS011;61691;53.072;6.582;2024-03-08T08:18:05;32.42;;;16.33;;
73456;SDS011;61691;53.072;6.582;2024-03-08T08:20:34;32.35;;;16.52;;
73456;SDS011;61691;53.072;6.582;2024-03-08T08:23:01;33.05;;;16.15;;
73456;SDS011;61691;53.072;6.582;2024-03-08T08:25:28;32.42;;;16.45;;
73456;SDS011;61691;53.072;6.582;2024-03-08T08:27:56;32.63;;;16.90;;
73456;SDS011;61691;53.072;6.582;2024-03-08T08:30:23;29.95;;;15.63;;
73456;SDS011;61691;53.072;6.582;2024-03-08T08:32:51;33.45;;;17.95;;
73456;SDS011;61691;53.072;6.582;2024-03-08T08:35:18;30.45;;;16.70;;
73456;SDS011;61691;53.072;6.582;2024-03-08T08:37:46;31.75;;;17.10;;
73456;SDS011;61691;53.072;6.582;2024-03-08T08:40:14;33.22;;;17.23;;
73456;SDS011;61691;53.072;6.582;2024-03-08T08:42:42;30.73;;;16.63;;
73456;SDS011;61691;53.072;6.582;2024-03-08T08:45:10;32.35;;;17.50;;
73456;SDS011;61691;53.072;6.582;2024-03-08T08:47:46;32.45;;;17.13;;
73456;SDS011;61691;53.072;6.582;2024-03-08T08:50:14;31.63;;;17.05;;
73456;SDS011;61691;53.072;6.582;2024-03-08T08:52:43;30.85;;;15.57;;
73456;SDS011;61691;53.072;6.582;2024-03-08T08:55:11;30.95;;;15.50;;
73456;SDS011;61691;53.072;6.582;2024-03-08T08:57:42;34.42;;;17.63;;
73456;SDS011;61691;53.072;6.582;2024-03-08T09:00:09;31.60;;;16.58;;
73456;SDS011;61691;53.072;6.582;2024-03-08T09:02:42;34.00;;;17.77;;
73456;SDS011;61691;53.072;6.582;2024-03-08T09:05:10;33.38;;;17.15;;
73456;SDS011;61691;53.072;6.582;2024-03-08T09:07:38;35.42;;;18.70;;
73456;SDS011;61691;53.072;6.582;2024-03-08T09:10:06;34.33;;;17.45;;
73456;SDS011;61691;53.072;6.582;2024-03-08T09:12:39;31.60;;;16.38;;
73456;SDS011;61691;53.072;6.582;2024-03-08T09:15:07;31.25;;;15.27;;
73456;SDS011;61691;53.072;6.582;2024-03-08T09:17:40;28.27;;;15.23;;
73456;SDS011;61691;53.072;6.582;2024-03-08T09:20:09;29.95;;;16.02;;
73456;SDS011;61691;53.072;6.582;2024-03-08T09:22:44;30.67;;;15.90;;
73456;SDS011;61691;53.072;6.582;2024-03-08T09:25:13;33.08;;;16.95;;
73456;SDS011;61691;53.072;6.582;2024-03-08T09:27:40;29.50;;;16.42;;
73456;SDS011;61691;53.072;6.582;2024-03-08T09:30:08;31.77;;;17.17;;
73456;SDS011;61691;53.072;6.582;2024-03-08T09:32:36;31.23;;;15.68;;
73456;SDS011;61691;53.072;6.582;2024-03-08T09:35:04;31.67;;;14.68;;
73456;SDS011;61691;53.072;6.582;2024-03-08T09:37:35;31.38;;;17.02;;
73456;SDS011;61691;53.072;6.582;2024-03-08T09:40:03;33.60;;;17.38;;
73456;SDS011;61691;53.072;6.582;2024-03-08T09:42:37;32.13;;;16.90;;
73456;SDS011;61691;53.072;6.582;2024-03-08T09:45:05;32.03;;;17.58;;
73456;SDS011;61691;53.072;6.582;2024-03-08T09:47:39;30.20;;;16.13;;
73456;SDS011;61691;53.072;6.582;2024-03-08T09:52:38;29.48;;;16.58;;
73456;SDS011;61691;53.072;6.582;2024-03-08T09:55:07;30.20;;;16.63;;
73456;SDS011;61691;53.072;6.582;2024-03-08T09:57:34;31.25;;;17.58;;
73456;SDS011;61691;53.072;6.582;2024-03-08T10:00:04;33.85;;;17.98;;
73456;SDS011;61691;53.072;6.582;2024-03-08T10:02:53;31.52;;;17.23;;
73456;SDS011;61691;53.072;6.582;2024-03-08T10:05:21;31.83;;;17.42;;
73456;SDS011;61691;53.072;6.582;2024-03-08T10:07:48;33.55;;;18.00;;
73456;SDS011;61691;53.072;6.582;2024-03-08T10:10:16;29.65;;;15.73;;
73456;SDS011;61691;53.072;6.582;2024-03-08T10:12:43;33.78;;;16.60;;
73456;SDS011;61691;53.072;6.582;2024-03-08T10:15:12;31.48;;;17.88;;
73456;SDS011;61691;53.072;6.582;2024-03-08T10:17:43;31.00;;;16.33;;
73456;SDS011;61691;53.072;6.582;2024-03-08T10:20:18;31.30;;;18.50;;
73456;SDS011;61691;53.072;6.582;2024-03-08T10:22:45;32.92;;;17.10;;
73456;SDS011;61691;53.072;6.582;2024-03-08T10:25:32;32.33;;;17.95;;
73456;SDS011;61691;53.072;6.582;2024-03-08T10:28:02;30.95;;;18.25;;
73456;SDS011;61691;53.072;6.582;2024-03-08T10:30:31;32.20;;;18.08;;
73456;SDS011;61691;53.072;6.582;2024-03-08T10:32:59;31.45;;;16.40;;
73456;SDS011;61691;53.072;6.582;2024-03-08T10:35:27;32.05;;;17.88;;
73456;SDS011;61691;53.072;6.582;2024-03-08T10:37:54;32.40;;;17.85;;
73456;SDS011;61691;53.072;6.582;2024-03-08T10:40:27;33.97;;;18.60;;
73456;SDS011;61691;53.072;6.582;2024-03-08T10:42:58;33.40;;;18.35;;
73456;SDS011;61691;53.072;6.582;2024-03-08T10:51:04;31.63;;;17.52;;
73456;SDS011;61691;53.072;6.582;2024-03-08T10:53:32;34.40;;;19.05;;
73456;SDS011;61691;53.072;6.582;2024-03-08T10:56:00;30.45;;;16.48;;
73456;SDS011;61691;53.072;6.582;2024-03-08T10:58:29;32.55;;;17.73;;
73456;SDS011;61691;53.072;6.582;2024-03-08T11:00:57;33.45;;;18.40;;
73456;SDS011;61691;53.072;6.582;2024-03-08T11:06:08;31.08;;;17.65;;
73456;SDS011;61691;53.072;6.582;2024-03-08T11:08:39;32.20;;;18.30;;
73456;SDS011;61691;53.072;6.582;2024-03-08T11:11:22;32.08;;;16.73;;
73456;SDS011;61691;53.072;6.582;2024-03-08T11:14:02;33.58;;;17.95;;
73456;SDS011;61691;53.072;6.582;2024-03-08T11:19:00;32.08;;;18.98;;
73456;SDS011;61691;53.072;6.582;2024-03-08T11:21:57;33.17;;;17.27;;
73456;SDS011;61691;53.072;6.582;2024-03-08T11:24:25;33.40;;;17.65;;
73456;SDS011;61691;53.072;6.582;2024-03-08T11:26:57;33.10;;;18.20;;
73456;SDS011;61691;53.072;6.582;2024-03-08T11:32:31;31.42;;;18.98;;
73456;SDS011;61691;53.072;6.582;2024-03-08T11:34:55;31.73;;;17.95;;
73456;SDS011;61691;53.072;6.582;2024-03-08T11:37:22;30.10;;;17.75;;
73456;SDS011;61691;53.072;6.582;2024-03-08T11:39:54;30.58;;;18.23;;
73456;SDS011;61691;53.072;6.582;2024-03-08T11:42:31;32.70;;;17.83;;
73456;SDS011;61691;53.072;6.582;2024-03-08T11:44:58;33.00;;;18.80;;
73456;SDS011;61691;53.072;6.582;2024-03-08T11:47:26;31.80;;;18.05;;
73456;SDS011;61691;53.072;6.582;2024-03-08T11:49:53;31.10;;;18.20;;
73456;SDS011;61691;53.072;6.582;2024-03-08T11:52:20;33.25;;;18.45;;
73456;SDS011;61691;53.072;6.582;2024-03-08T11:54:51;33.92;;;19.20;;
73456;SDS011;61691;53.072;6.582;2024-03-08T11:57:25;31.27;;;18.27;;
73456;SDS011;61691;53.072;6.582;2024-03-08T11:59:53;32.90;;;18.45;;
73456;SDS011;61691;53.072;6.582;2024-03-08T12:02:25;30.95;;;17.02;;
73456;SDS011;61691;53.072;6.582;2024-03-08T12:04:59;32.08;;;17.75;;
73456;SDS011;61691;53.072;6.582;2024-03-08T12:07:30;30.02;;;16.85;;
73456;SDS011;61691;53.072;6.582;2024-03-08T12:13:04;31.98;;;17.88;;
73456;SDS011;61691;53.072;6.582;2024-03-08T12:15:39;30.17;;;18.10;;
73456;SDS011;61691;53.072;6.582;2024-03-08T12:18:07;31.10;;;16.30;;
73456;SDS011;61691;53.072;6.582;2024-03-08T12:20:37;31.20;;;17.23;;
73456;SDS011;61691;53.072;6.582;2024-03-08T12:23:06;31.63;;;17.92;;
73456;SDS011;61691;53.072;6.582;2024-03-08T12:25:40;30.02;;;17.60;;
73456;SDS011;61691;53.072;6.582;2024-03-08T12:28:08;29.88;;;18.05;;
73456;SDS011;61691;53.072;6.582;2024-03-08T12:30:50;33.78;;;18.65;;
73456;SDS011;61691;53.072;6.582;2024-03-08T12:33:21;29.33;;;17.20;;
73456;SDS011;61691;53.072;6.582;2024-03-08T12:35:52;30.58;;;17.58;;
73456;SDS011;61691;53.072;6.582;2024-03-08T12:38:22;32.88;;;18.00;;
73456;SDS011;61691;53.072;6.582;2024-03-08T12:40:59;30.92;;;17.58;;
73456;SDS011;61691;53.072;6.582;2024-03-08T12:43:29;32.30;;;17.02;;
73456;SDS011;61691;53.072;6.582;2024-03-08T12:45:58;29.92;;;17.77;;
73456;SDS011;61691;53.072;6.582;2024-03-08T12:48:26;30.23;;;16.85;;
73456;SDS011;61691;53.072;6.582;2024-03-08T12:50:53;32.08;;;16.85;;
73456;SDS011;61691;53.072;6.582;2024-03-08T12:53:21;28.67;;;16.38;;
73456;SDS011;61691;53.072;6.582;2024-03-08T12:55:50;29.05;;;16.20;;
73456;SDS011;61691;53.072;6.582;2024-03-08T12:58:17;34.75;;;18.35;;
73456;SDS011;61691;53.072;6.582;2024-03-08T13:00:47;28.58;;;16.48;;
73456;SDS011;61691;53.072;6.582;2024-03-08T13:03:20;30.20;;;17.10;;
73456;SDS011;61691;53.072;6.582;2024-03-08T13:05:49;29.80;;;17.58;;
73456;SDS011;61691;53.072;6.582;2024-03-08T13:08:17;30.25;;;16.88;;
73456;SDS011;61691;53.072;6.582;2024-03-08T13:10:45;32.13;;;16.80;;
73456;SDS011;61691;53.072;6.582;2024-03-08T13:13:12;28.05;;;16.17;;
73456;SDS011;61691;53.072;6.582;2024-03-08T13:15:44;30.35;;;16.23;;
73456;SDS011;61691;53.072;6.582;2024-03-08T13:18:11;29.63;;;15.27;;
73456;SDS011;61691;53.072;6.582;2024-03-08T13:23:42;29.35;;;16.17;;
73456;SDS011;61691;53.072;6.582;2024-03-08T13:26:30;28.88;;;16.00;;
73456;SDS011;61691;53.072;6.582;2024-03-08T13:29:00;27.48;;;15.25;;
73456;SDS011;61691;53.072;6.582;2024-03-08T13:31:28;29.15;;;16.42;;
73456;SDS011;61691;53.072;6.582;2024-03-08T13:33:55;27.67;;;14.48;;
73456;SDS011;61691;53.072;6.582;2024-03-08T13:36:25;29.60;;;15.25;;
73456;SDS011;61691;53.072;6.582;2024-03-08T13:38:57;28.23;;;15.05;;
73456;SDS011;61691;53.072;6.582;2024-03-08T13:41:26;27.42;;;15.80;;
73456;SDS011;61691;53.072;6.582;2024-03-08T13:43:56;29.13;;;15.55;;
73456;SDS011;61691;53.072;6.582;2024-03-08T13:46:24;27.52;;;15.75;;
73456;SDS011;61691;53.072;6.582;2024-03-08T13:48:53;28.95;;;16.38;;
73456;SDS011;61691;53.072;6.582;2024-03-08T13:51:21;26.95;;;15.30;;
73456;SDS011;61691;53.072;6.582;2024-03-08T13:53:49;27.70;;;14.93;;
73456;SDS011;61691;53.072;6.582;2024-03-08T13:56:17;28.30;;;15.50;;
73456;SDS011;61691;53.072;6.582;2024-03-08T13:58:44;26.15;;;15.10;;
73456;SDS011;61691;53.072;6.582;2024-03-08T14:01:12;27.33;;;15.77;;
73456;SDS011;61691;53.072;6.582;2024-03-08T14:03:39;28.27;;;15.18;;
73456;SDS011;61691;53.072;6.582;2024-03-08T14:06:09;26.52;;;14.23;;
73456;SDS011;61691;53.072;6.582;2024-03-08T14:08:51;27.17;;;13.80;;
73456;SDS011;61691;53.072;6.582;2024-03-08T14:11:20;27.00;;;14.50;;
73456;SDS011;61691;53.072;6.582;2024-03-08T14:13:47;26.17;;;13.75;;
73456;SDS011;61691;53.072;6.582;2024-03-08T14:16:15;26.55;;;15.13;;
73456;SDS011;61691;53.072;6.582;2024-03-08T14:18:43;24.48;;;13.73;;
73456;SDS011;61691;53.072;6.582;2024-03-08T14:21:10;25.90;;;13.98;;
73456;SDS011;61691;53.072;6.582;2024-03-08T14:23:40;24.60;;;13.43;;
73456;SDS011;61691;53.072;6.582;2024-03-08T14:26:09;26.10;;;13.68;;
73456;SDS011;61691;53.072;6.582;2024-03-08T14:28:36;26.02;;;12.60;;
73456;SDS011;61691;53.072;6.582;2024-03-08T14:31:06;25.08;;;12.90;;
73456;SDS011;61691;53.072;6.582;2024-03-08T14:33:38;25.70;;;13.60;;
73456;SDS011;61691;53.072;6.582;2024-03-08T14:36:05;27.23;;;13.40;;
73456;SDS011;61691;53.072;6.582;2024-03-08T14:38:33;25.00;;;12.80;;
73456;SDS011;61691;53.072;6.582;2024-03-08T14:41:02;25.58;;;13.60;;
73456;SDS011;61691;53.072;6.582;2024-03-08T14:43:31;25.60;;;12.20;;
73456;SDS011;61691;53.072;6.582;2024-03-08T14:45:59;27.13;;;13.68;;
73456;SDS011;61691;53.072;6.582;2024-03-08T14:48:26;25.35;;;12.80;;
73456;SDS011;61691;53.072;6.582;2024-03-08T14:50:54;25.00;;;12.88;;
73456;SDS011;61691;53.072;6.582;2024-03-08T14:53:21;26.00;;;13.65;;
73456;SDS011;61691;53.072;6.582;2024-03-08T14:55:48;26.38;;;13.20;;
73456;SDS011;61691;53.072;6.582;2024-03-08T14:58:16;24.92;;;13.48;;
73456;SDS011;61691;53.072;6.582;2024-03-08T15:00:44;26.00;;;14.27;;
73456;SDS011;61691;53.072;6.582;2024-03-08T15:03:13;29.23;;;15.68;;
73456;SDS011;61691;53.072;6.582;2024-03-08T15:05:43;25.88;;;13.57;;
73456;SDS011;61691;53.072;6.582;2024-03-08T15:08:15;27.02;;;14.23;;